Time;durP1;ratioP1;P1;durP2;ratioP2;P2;SDS_P1;SDS_P2;PMS_P1;PMS_P2;Temp;Humidity;BMP_temperature;BMP_pressure;BME280_temperature;BME280_humidity;BME280_pressure;Samples;Min_cycle;Max_cycle;Signal;HPM_P1;HPM_P2
2023/04/11 00:01:19;;;;;;;7.13;4.50;;;9.10;90.10;;;;;;7604231;19;20022;-75
2023/04/11 00:03:51;;;;;;;6.40;4.28;;;9.00;90.00;;;;;;7597978;19;20090;-75
2023/04/11 00:06:25;;;;;;;5.65;4.18;;;9.10;89.30;;;;;;7600524;19;20047;-75
2023/04/11 00:09:05;;;;;;;6.82;4.78;;;9.10;88.90;;;;;;7609550;19;20018;-74
2023/04/11 00:11:38;;;;;;;5.93;4.05;;;9.20;88.10;;;;;;7594860;19;20022;-75
2023/04/11 00:14:11;;;;;;;5.25;3.90;;;9.10;88.00;;;;;;7595499;19;20446;-75
2023/04/11 00:16:48;;;;;;;6.35;4.22;;;9.20;87.30;;;;;;7591050;19;20018;-78
2023/04/11 00:19:24;;;;;;;6.70;4.10;;;9.20;86.70;;;;;;7602959;19;20021;-76
2023/04/11 00:21:57;;;;;;;6.22;4.28;;;9.20;86.50;;;;;;7608197;19;20048;-77
2023/04/11 00:24:32;;;;;;;7.28;3.55;;;9.20;86.00;;;;;;7602406;19;20035;-75
2023/04/11 00:27:05;;;;;;;5.32;3.80;;;9.30;85.40;;;;;;7607382;19;20043;-75
2023/04/11 00:29:37;;;;;;;4.50;3.58;;;9.30;84.80;;;;;;7609871;19;20011;-74
2023/04/11 00:32:10;;;;;;;8.35;3.70;;;9.40;84.40;;;;;;7614654;19;20049;-74
2023/04/11 00:34:43;;;;;;;5.70;3.63;;;9.40;83.80;;;;;;7599997;19;20018;-76
2023/04/11 00:37:20;;;;;;;5.03;3.30;;;9.50;83.50;;;;;;7599015;19;20026;-77
2023/04/11 00:39:54;;;;;;;6.05;3.72;;;9.50;82.90;;;;;;7611255;19;20022;-76
2023/04/11 00:42:30;;;;;;;6.18;3.05;;;9.70;82.50;;;;;;7606703;19;20538;-76
2023/04/11 00:45:03;;;;;;;5.05;3.67;;;9.70;82.40;;;;;;7606406;19;20546;-76
2023/04/11 00:47:35;;;;;;;4.87;3.37;;;9.80;81.90;;;;;;7595117;19;20116;-75
2023/04/11 00:50:08;;;;;;;5.20;3.80;;;9.70;82.00;;;;;;7602178;19;20011;-77
2023/04/11 00:52:45;;;;;;;4.13;3.27;;;9.90;81.30;;;;;;7602679;19;20007;-75
2023/04/11 00:55:17;;;;;;;4.75;3.42;;;9.90;81.00;;;;;;7597726;19;20018;-75
2023/04/11 00:57:53;;;;;;;5.50;3.30;;;10.00;80.70;;;;;;7599470;19;20013;-76
2023/04/11 01:00:28;;;;;;;7.22;3.55;;;10.00;81.10;;;;;;7607381;19;20022;-76
2023/04/11 01:03:07;;;;;;;5.63;3.70;;;9.90;80.70;;;;;;7588467;19;20902;-76
2023/04/11 01:05:40;;;;;;;4.28;3.30;;;10.00;80.60;;;;;;7599484;19;20916;-77
2023/04/11 01:08:13;;;;;;;4.78;3.17;;;10.10;80.70;;;;;;7603173;19;20062;-75
2023/04/11 01:10:46;;;;;;;5.35;3.58;;;10.10;80.50;;;;;;7604811;19;20048;-77
2023/04/11 01:13:19;;;;;;;5.65;3.35;;;10.10;80.60;;;;;;7591653;19;20025;-76
2023/04/11 01:15:51;;;;;;;4.93;3.47;;;10.20;80.10;;;;;;7595728;19;20007;-75
2023/04/11 01:18:24;;;;;;;7.50;3.50;;;10.20;79.90;;;;;;7564992;19;20019;-77
2023/04/11 01:20:59;;;;;;;4.30;3.13;;;10.20;80.10;;;;;;7595448;19;20021;-76
2023/04/11 01:23:33;;;;;;;4.93;3.40;;;10.20;79.90;;;;;;7584166;19;20011;-76
2023/04/11 01:26:07;;;;;;;4.70;3.38;;;10.20;80.20;;;;;;7586864;19;20014;-76
2023/04/11 01:28:42;;;;;;;4.22;3.22;;;10.20;80.20;;;;;;7581084;19;20006;-74
2023/04/11 01:31:15;;;;;;;4.97;3.05;;;10.30;79.80;;;;;;7593324;19;20022;-74
2023/04/11 01:33:47;;;;;;;5.13;3.65;;;10.30;79.70;;;;;;7579339;19;20106;-75
2023/04/11 01:36:20;;;;;;;5.05;3.67;;;10.40;79.70;;;;;;7583485;19;20018;-74
2023/04/11 01:38:52;;;;;;;5.85;3.40;;;10.40;79.90;;;;;;7602175;19;20015;-76
2023/04/11 01:41:26;;;;;;;5.05;3.13;;;10.40;79.90;;;;;;7600619;19;20026;-75
2023/04/11 01:43:59;;;;;;;4.32;3.13;;;10.40;80.40;;;;;;7604944;19;20141;-76
2023/04/11 01:46:31;;;;;;;4.35;3.25;;;10.40;79.70;;;;;;7588397;19;20014;-76
2023/04/11 01:49:05;;;;;;;4.68;3.50;;;10.40;80.20;;;;;;7595271;19;21096;-75
2023/04/11 01:51:37;;;;;;;4.50;3.40;;;10.40;80.60;;;;;;7602032;19;21024;-75
2023/04/11 01:54:09;;;;;;;4.03;3.25;;;10.40;80.60;;;;;;7611380;19;20023;-74
2023/04/11 01:56:42;;;;;;;6.95;4.07;;;10.40;80.90;;;;;;7601603;19;20042;-77
2023/04/11 01:59:14;;;;;;;4.45;3.60;;;10.40;80.60;;;;;;7604088;19;20059;-75
2023/04/11 02:01:48;;;;;;;2.97;1.98;;;10.40;80.90;;;;;;7588556;19;20021;-74
2023/04/11 02:04:21;;;;;;;3.88;2.85;;;10.50;79.40;;;;;;7562451;19;20018;-75
2023/04/11 02:06:53;;;;;;;5.07;2.60;;;10.70;79.60;;;;;;7596036;19;20014;-76
2023/04/11 02:09:25;;;;;;;6.28;2.70;;;10.80;79.50;;;;;;7582386;19;20094;-75
2023/04/11 02:11:58;;;;;;;7.60;2.83;;;10.90;77.60;;;;;;7569479;19;20019;-74
2023/04/11 02:14:41;;;;;;;5.65;1.98;;;11.00;78.00;;;;;;7574748;19;20033;-75
2023/04/11 02:17:17;;;;;;;4.55;2.40;;;11.20;75.90;;;;;;7596358;19;20063;-73
2023/04/11 02:19:50;;;;;;;10.32;1.98;;;11.30;75.00;;;;;;7593315;19;20026;-75
2023/04/11 02:22:23;;;;;;;3.83;2.17;;;11.50;74.50;;;;;;7603269;19;20106;-75
2023/04/11 02:24:56;;;;;;;5.47;2.05;;;11.50;74.60;;;;;;7607984;19;20024;-75
2023/04/11 02:27:28;;;;;;;4.35;1.88;;;11.60;72.60;;;;;;7584427;19;20024;-75
2023/04/11 02:30:04;;;;;;;2.38;1.90;;;11.60;74.30;;;;;;7594754;19;20045;-74
2023/04/11 02:32:37;;;;;;;2.88;1.73;;;11.50;75.00;;;;;;7577708;19;21257;-76
2023/04/11 02:35:09;;;;;;;4.68;2.35;;;11.70;72.20;;;;;;7584976;19;20022;-76
2023/04/11 02:37:45;;;;;;;3.20;1.80;;;11.70;71.70;;;;;;7597340;19;20011;-75
2023/04/11 02:40:17;;;;;;;3.78;1.90;;;11.70;72.30;;;;;;7580037;19;20869;-78
2023/04/11 02:42:49;;;;;;;5.13;2.60;;;11.70;72.20;;;;;;7580908;19;20350;-79
2023/04/11 02:45:21;;;;;;;2.72;1.73;;;11.70;71.70;;;;;;7583371;19;20018;-78
2023/04/11 02:47:54;;;;;;;2.83;1.85;;;11.80;71.20;;;;;;7590772;19;20022;-79
2023/04/11 02:50:26;;;;;;;7.22;2.10;;;11.70;71.00;;;;;;7587481;19;21330;-78
2023/04/11 02:52:59;;;;;;;3.88;2.03;;;11.70;70.90;;;;;;7587444;19;20354;-78
2023/04/11 02:55:33;;;;;;;4.70;2.17;;;11.70;70.90;;;;;;7581617;19;20018;-78
2023/04/11 02:58:06;;;;;;;4.65;2.05;;;11.70;71.00;;;;;;7586015;19;20025;-78
2023/04/11 03:00:38;;;;;;;3.65;2.03;;;11.70;70.80;;;;;;7583256;19;22934;-78
2023/04/11 03:03:13;;;;;;;3.97;2.00;;;11.70;70.90;;;;;;7560456;19;20010;-78
2023/04/11 03:05:49;;;;;;;5.93;2.08;;;11.70;70.80;;;;;;7578558;19;20062;-78
2023/04/11 03:08:26;;;;;;;3.60;2.05;;;11.70;70.10;;;;;;7574272;19;20014;-78
2023/04/11 03:10:59;;;;;;;4.45;1.90;;;11.70;70.00;;;;;;7587996;19;20015;-79
2023/04/11 03:13:32;;;;;;;5.07;1.85;;;11.70;70.30;;;;;;7563431;19;20461;-79
2023/04/11 03:16:05;;;;;;;4.88;1.90;;;11.80;69.90;;;;;;7584100;19;20010;-79
2023/04/11 03:18:38;;;;;;;4.30;1.98;;;11.70;70.30;;;;;;7594726;19;20010;-80
2023/04/11 03:21:13;;;;;;;3.88;1.90;;;11.70;70.20;;;;;;7592141;19;20033;-79
2023/04/11 03:23:48;;;;;;;2.53;1.77;;;11.60;71.70;;;;;;7570088;19;20010;-80
2023/04/11 03:26:25;;;;;;;4.32;1.80;;;11.70;69.40;;;;;;7573712;19;20018;-80
2023/04/11 03:29:01;;;;;;;4.75;1.60;;;11.70;71.00;;;;;;7587114;19;20018;-78
2023/04/11 03:31:42;;;;;;;5.82;1.77;;;11.70;72.70;;;;;;7583298;19;20010;-80
2023/04/11 03:34:16;;;;;;;5.38;1.98;;;11.50;77.10;;;;;;7602989;19;20727;-80
2023/04/11 03:36:49;;;;;;;2.70;1.60;;;11.50;75.60;;;;;;7592289;19;20037;-78
2023/04/11 03:39:21;;;;;;;4.72;1.67;;;11.70;74.60;;;;;;7590817;19;20343;-79
2023/04/11 03:41:54;;;;;;;3.15;1.92;;;11.70;73.80;;;;;;7590869;19;20031;-79
2023/04/11 03:44:27;;;;;;;2.80;1.60;;;11.80;74.60;;;;;;7605330;19;20018;-80
2023/04/11 03:47:01;;;;;;;3.45;2.28;;;11.70;74.30;;;;;;7605469;19;20045;-79
2023/04/11 03:49:40;;;;;;;5.32;1.63;;;11.70;73.80;;;;;;7594204;19;20255;-79
2023/04/11 03:52:14;;;;;;;4.03;1.50;;;11.80;73.10;;;;;;7590077;19;21206;-80
2023/04/11 03:54:47;;;;;;;3.47;1.70;;;11.80;72.60;;;;;;7584748;19;20078;-80
2023/04/11 03:57:20;;;;;;;4.88;2.03;;;11.80;72.70;;;;;;7590275;19;20691;-80
2023/04/11 03:59:54;;;;;;;5.00;2.43;;;11.80;73.60;;;;;;7596791;19;20018;-80
2023/04/11 04:02:27;;;;;;;4.72;1.70;;;11.70;73.30;;;;;;7583678;19;20519;-79
2023/04/11 04:05:00;;;;;;;2.53;1.70;;;11.70;74.90;;;;;;7593472;19;20017;-80
2023/04/11 04:07:36;;;;;;;4.93;2.00;;;11.60;74.80;;;;;;7588685;19;20021;-80
2023/04/11 04:10:31;;;;;;;3.38;2.22;;;11.60;73.70;;;;;;7582404;19;20097;-79
2023/04/11 04:13:05;;;;;;;6.30;2.45;;;11.70;73.70;;;;;;7584974;19;20019;-79
2023/04/11 04:15:41;;;;;;;3.05;2.40;;;11.70;73.30;;;;;;7590539;19;20025;-80
2023/04/11 04:18:16;;;;;;;5.15;2.08;;;11.70;74.30;;;;;;7587106;19;20011;-80
2023/04/11 04:20:52;;;;;;;3.65;1.70;;;11.60;74.20;;;;;;7593248;19;20026;-80
2023/04/11 04:23:28;;;;;;;2.55;1.60;;;11.60;74.50;;;;;;7581057;19;20038;-80
2023/04/11 04:26:23;;;;;;;4.68;1.92;;;11.60;75.20;;;;;;7588283;19;20041;-79
2023/04/11 04:29:11;;;;;;;3.70;1.50;;;11.60;74.90;;;;;;7577491;19;20117;-79
2023/04/11 04:31:55;;;;;;;3.13;1.42;;;11.60;75.30;;;;;;7591455;19;20360;-80
2023/04/11 04:34:45;;;;;;;3.78;1.60;;;11.60;75.30;;;;;;7594003;19;20377;-79
2023/04/11 04:37:25;;;;;;;3.85;1.50;;;11.50;75.90;;;;;;7586241;19;20018;-80
2023/04/11 04:40:12;;;;;;;3.22;1.75;;;11.40;76.40;;;;;;7592641;19;20015;-78
2023/04/11 04:42:57;;;;;;;4.25;1.58;;;11.40;75.90;;;;;;7579780;19;20086;-80
2023/04/11 04:45:40;;;;;;;4.82;2.00;;;11.40;76.20;;;;;;7590339;19;20022;-79
2023/04/11 04:48:14;;;;;;;4.05;1.80;;;11.30;77.50;;;;;;7592651;19;20387;-79
2023/04/11 04:50:46;;;;;;;2.97;1.73;;;11.20;80.10;;;;;;7589422;19;20497;-79
2023/04/11 04:53:19;;;;;;;3.63;1.90;;;11.00;80.30;;;;;;7589444;19;20022;-79
2023/04/11 04:56:00;;;;;;;5.82;1.80;;;11.00;82.10;;;;;;7589101;19;20286;-81
2023/04/11 04:58:35;;;;;;;3.85;1.90;;;11.00;81.40;;;;;;7586374;19;20052;-78
2023/04/11 05:01:10;;;;;;;1.98;1.77;;;10.90;80.00;;;;;;7590228;19;20043;-79
2023/04/11 05:03:45;;;;;;;8.85;1.80;;;11.00;83.20;;;;;;7572526;19;20018;-79
2023/04/11 05:06:30;;;;;;;6.43;1.90;;;11.00;79.60;;;;;;7585431;19;20014;-79
2023/04/11 05:09:05;;;;;;;2.95;2.40;;;11.00;81.80;;;;;;7579277;19;20379;-79
2023/04/11 05:11:38;;;;;;;4.13;2.05;;;11.10;79.10;;;;;;7577686;19;20014;-79
2023/04/11 05:14:10;;;;;;;5.13;1.92;;;11.30;78.80;;;;;;7592011;19;20022;-79
2023/04/11 05:16:44;;;;;;;4.53;1.88;;;11.30;78.00;;;;;;7580084;19;20325;-80
2023/04/11 05:19:16;;;;;;;3.05;1.67;;;11.40;77.20;;;;;;7587556;19;20014;-79
2023/04/11 05:21:51;;;;;;;8.43;1.80;;;11.50;77.90;;;;;;7595145;19;20018;-79
2023/04/11 05:24:23;;;;;;;6.28;1.80;;;11.60;77.90;;;;;;7591223;19;20017;-79
2023/04/11 05:26:56;;;;;;;7.30;2.10;;;11.70;78.60;;;;;;7583421;19;20042;-78
2023/04/11 05:29:28;;;;;;;5.75;2.30;;;11.70;83.10;;;;;;7611158;19;20046;-80
2023/04/11 05:32:04;;;;;;;3.00;1.70;;;11.50;85.80;;;;;;7614467;19;20042;-82
2023/04/11 05:34:51;;;;;;;3.42;1.98;;;11.50;86.60;;;;;;7591664;19;20090;-79
2023/04/11 05:37:30;;;;;;;4.72;2.08;;;11.40;87.30;;;;;;7585765;19;20017;-77
2023/04/11 05:40:04;;;;;;;3.45;1.98;;;11.40;88.00;;;;;;7591082;19;20021;-78
2023/04/11 05:42:39;;;;;;;3.05;1.77;;;11.50;87.80;;;;;;7596069;19;20019;-78
2023/04/11 05:45:11;;;;;;;4.95;2.00;;;11.50;88.30;;;;;;7596690;19;20097;-79
2023/04/11 05:47:43;;;;;;;2.88;1.75;;;11.70;87.00;;;;;;7581056;19;25121;-78
2023/04/11 05:50:16;;;;;;;4.72;1.42;;;11.70;87.70;;;;;;7581228;19;20014;-78
2023/04/11 05:52:48;;;;;;;12.85;1.60;;;11.70;87.90;;;;;;7582831;19;20021;-78
2023/04/11 05:55:20;;;;;;;3.25;1.50;;;11.70;89.70;;;;;;7593352;19;21137;-77
2023/04/11 05:57:53;;;;;;;3.90;1.52;;;11.70;89.90;;;;;;7598143;19;20588;-79
2023/04/11 06:00:29;;;;;;;2.17;1.50;;;11.70;90.50;;;;;;7605924;19;20055;-78
2023/04/11 06:03:03;;;;;;;4.50;1.42;;;11.50;91.40;;;;;;7590796;19;20014;-78
2023/04/11 06:05:36;;;;;;;2.83;1.88;;;11.40;92.30;;;;;;7591990;19;21007;-79
2023/04/11 06:08:10;;;;;;;6.00;2.50;;;11.30;93.50;;;;;;7595914;19;20009;-78
2023/04/11 06:10:42;;;;;;;5.80;1.55;;;11.40;94.40;;;;;;7606370;19;20024;-78
2023/04/11 06:13:14;;;;;;;3.15;1.80;;;11.40;95.00;;;;;;7608924;19;20022;-78
2023/04/11 06:15:47;;;;;;;3.30;1.88;;;11.40;95.60;;;;;;7579522;19;20941;-78
2023/04/11 06:18:19;;;;;;;2.42;1.40;;;11.40;96.20;;;;;;7563322;19;20041;-78
2023/04/11 06:20:51;;;;;;;3.47;1.90;;;11.50;96.60;;;;;;7594563;19;20014;-80
2023/04/11 06:23:24;;;;;;;4.20;1.92;;;11.40;97.20;;;;;;7593571;19;20018;-79
2023/04/11 06:25:56;;;;;;;4.30;1.80;;;11.30;97.40;;;;;;7569183;19;20052;-80
2023/04/11 06:28:28;;;;;;;3.42;1.88;;;11.30;97.70;;;;;;7595475;19;20066;-78
2023/04/11 06:31:00;;;;;;;2.17;1.30;;;11.40;97.40;;;;;;7580898;19;20018;-78
2023/04/11 06:33:33;;;;;;;3.25;1.73;;;11.40;97.70;;;;;;7567174;19;20006;-78
2023/04/11 06:36:05;;;;;;;3.15;1.42;;;11.40;98.10;;;;;;7594665;19;20543;-79
2023/04/11 06:38:39;;;;;;;3.15;2.00;;;11.40;97.60;;;;;;7573964;19;20042;-79
2023/04/11 06:41:11;;;;;;;2.80;1.70;;;11.40;97.90;;;;;;7548383;19;20181;-79
2023/04/11 06:43:44;;;;;;;2.53;1.58;;;11.30;99.20;;;;;;7570357;19;20023;-79
2023/04/11 06:46:17;;;;;;;3.22;1.45;;;11.30;99.40;;;;;;7580705;19;20055;-77
2023/04/11 06:48:49;;;;;;;2.92;1.40;;;11.30;99.90;;;;;;7569680;19;20018;-77
2023/04/11 06:51:21;;;;;;;3.03;1.60;;;11.10;99.90;;;;;;7568502;19;20025;-77
2023/04/11 06:53:53;;;;;;;4.60;1.85;;;10.90;99.90;;;;;;7586699;19;20025;-78
2023/04/11 06:56:26;;;;;;;3.17;2.05;;;10.80;99.90;;;;;;7563606;19;20478;-76
2023/04/11 06:58:58;;;;;;;3.90;2.30;;;10.60;99.90;;;;;;7570368;19;20054;-77
2023/04/11 07:01:34;;;;;;;3.80;2.40;;;10.40;99.90;;;;;;7565259;19;20018;-77
2023/04/11 07:04:07;;;;;;;4.93;2.50;;;10.20;99.90;;;;;;7585376;19;20905;-76
2023/04/11 07:06:40;;;;;;;3.92;2.15;;;10.10;99.90;;;;;;7583862;19;20010;-77
2023/04/11 07:09:13;;;;;;;4.43;3.25;;;10.00;99.90;;;;;;7592991;19;20040;-77
2023/04/11 07:11:45;;;;;;;5.25;3.08;;;9.90;99.90;;;;;;7578390;19;20053;-77
2023/04/11 07:14:17;;;;;;;5.07;2.90;;;9.90;99.90;;;;;;7591621;19;20090;-77
2023/04/11 07:16:50;;;;;;;8.73;3.80;;;9.80;99.90;;;;;;7577629;19;20028;-77
2023/04/11 07:19:22;;;;;;;7.40;3.67;;;9.70;99.90;;;;;;7589500;19;20014;-77
2023/04/11 07:21:55;;;;;;;4.88;3.08;;;9.70;99.90;;;;;;7602521;19;20041;-77
2023/04/11 07:24:29;;;;;;;9.88;4.18;;;9.60;99.90;;;;;;7582944;19;20014;-76
2023/04/11 07:27:02;;;;;;;7.28;3.53;;;9.50;99.90;;;;;;7578499;19;20180;-75
2023/04/11 07:29:34;;;;;;;5.90;3.78;;;9.50;99.90;;;;;;7561129;19;20049;-75
2023/04/11 07:32:06;;;;;;;4.40;2.88;;;9.50;99.90;;;;;;7578445;19;20440;-77
2023/04/11 07:34:38;;;;;;;5.95;3.70;;;9.40;99.90;;;;;;7576079;19;20022;-76
2023/04/11 07:37:11;;;;;;;6.68;3.30;;;9.40;99.90;;;;;;7568972;19;20018;-76
2023/04/11 07:39:45;;;;;;;7.55;2.60;;;9.40;99.90;;;;;;7572486;19;20018;-77
2023/04/11 07:42:17;;;;;;;7.47;3.10;;;9.40;99.90;;;;;;7578472;19;20557;-76
2023/04/11 07:44:49;;;;;;;9.73;5.15;;;9.30;99.90;;;;;;7590060;19;22468;-76
2023/04/11 07:47:22;;;;;;;4.57;2.40;;;9.40;99.90;;;;;;7579540;19;20018;-76
2023/04/11 07:49:54;;;;;;;2.80;1.80;;;9.30;99.90;;;;;;7586273;19;20010;-77
2023/04/11 07:52:26;;;;;;;4.30;2.28;;;9.30;99.90;;;;;;7601753;19;20478;-77
2023/04/11 07:54:58;;;;;;;2.97;2.03;;;9.30;99.90;;;;;;7581418;19;20082;-76
2023/04/11 07:57:31;;;;;;;3.67;2.28;;;9.30;99.90;;;;;;7592127;19;20057;-76
2023/04/11 08:00:03;;;;;;;7.30;2.30;;;9.30;99.90;;;;;;7573990;19;20093;-74
2023/04/11 08:02:43;;;;;;;6.50;2.63;;;9.30;99.90;;;;;;7551640;19;20014;-76
2023/04/11 08:05:15;;;;;;;5.15;1.88;;;9.30;99.90;;;;;;7510771;19;20022;-75
2023/04/11 08:07:47;;;;;;;5.47;1.75;;;9.20;99.90;;;;;;7563842;19;20023;-75
2023/04/11 08:10:20;;;;;;;2.60;1.40;;;9.20;99.90;;;;;;7573333;19;20014;-75
2023/04/11 08:12:52;;;;;;;3.38;1.52;;;9.20;99.90;;;;;;7527913;19;20014;-75
2023/04/11 08:15:25;;;;;;;1.25;1.15;;;9.10;99.90;;;;;;7574253;19;20047;-76
2023/04/11 08:17:58;;;;;;;3.67;1.63;;;9.10;99.90;;;;;;7552937;19;20101;-75
2023/04/11 08:20:30;;;;;;;2.80;1.48;;;9.20;99.90;;;;;;7561953;19;20018;-76
2023/04/11 08:23:06;;;;;;;2.05;1.50;;;9.30;99.90;;;;;;7589222;19;20098;-75
2023/04/11 08:25:39;;;;;;;9.32;3.75;;;9.20;99.90;;;;;;7573841;19;20014;-73
2023/04/11 08:28:11;;;;;;;3.15;1.80;;;9.10;99.90;;;;;;7514189;19;20021;-74
2023/04/11 08:30:43;;;;;;;2.92;1.95;;;9.10;99.90;;;;;;7551687;19;20010;-74
2023/04/11 08:33:15;;;;;;;2.90;1.48;;;9.10;99.90;;;;;;7562048;19;20015;-73
2023/04/11 08:35:48;;;;;;;1.83;1.60;;;9.10;99.90;;;;;;7577030;19;20014;-73
2023/04/11 08:38:20;;;;;;;3.35;1.77;;;9.10;99.90;;;;;;7559297;19;20014;-74
2023/04/11 08:40:54;;;;;;;5.10;1.90;;;9.10;99.90;;;;;;7559956;19;20026;-74
2023/04/11 08:43:26;;;;;;;3.25;1.95;;;9.10;99.90;;;;;;7548295;19;20018;-74
2023/04/11 08:46:03;;;;;;;2.75;1.58;;;9.10;99.90;;;;;;7546632;19;21034;-74
2023/04/11 08:48:37;;;;;;;2.03;1.10;;;9.20;99.90;;;;;;7542345;19;20014;-73
2023/04/11 08:51:11;;;;;;;3.55;1.67;;;9.10;99.90;;;;;;7554139;19;20013;-73
2023/04/11 08:53:43;;;;;;;2.83;1.40;;;9.20;99.90;;;;;;7540073;19;20094;-72
2023/04/11 08:56:16;;;;;;;2.43;1.10;;;9.20;99.90;;;;;;7534956;19;20731;-72
2023/04/11 08:58:48;;;;;;;5.25;2.13;;;9.20;99.90;;;;;;7536594;19;20809;-73
2023/04/11 09:01:25;;;;;;;2.80;1.58;;;9.40;99.90;;;;;;7529051;19;20816;-73
2023/04/11 09:04:06;;;;;;;1.95;1.15;;;9.30;99.90;;;;;;7542300;19;20018;-72
2023/04/11 09:06:38;;;;;;;4.47;2.10;;;9.40;99.90;;;;;;7581854;19;20558;-74
2023/04/11 09:09:28;;;;;;;2.90;1.10;;;9.40;99.90;;;;;;7563743;19;20027;-74
2023/04/11 09:12:01;;;;;;;2.13;1.25;;;9.40;99.90;;;;;;7585232;19;20033;-74
2023/04/11 09:14:33;;;;;;;;;;;9.20;99.90;;;;;;7580265;19;20014;-71
2023/04/11 09:17:15;;;;;;;3.65;1.33;;;9.10;99.90;;;;;;7569430;19;20792;-73
2023/04/11 09:19:48;;;;;;;2.33;1.30;;;9.10;99.90;;;;;;7557609;19;20800;-72
2023/04/11 09:22:34;;;;;;;3.55;0.95;;;9.10;99.90;;;;;;7590226;19;20022;-74
2023/04/11 09:25:07;;;;;;;1.45;1.10;;;9.00;99.90;;;;;;7562726;19;20036;-74
2023/04/11 09:27:39;;;;;;;3.87;1.50;;;9.10;99.90;;;;;;7535352;19;20014;-74
2023/04/11 09:30:24;;;;;;;2.22;1.08;;;9.00;99.90;;;;;;7572971;19;20522;-74
2023/04/11 09:32:56;;;;;;;2.53;1.00;;;9.00;99.90;;;;;;7575948;19;20051;-71
2023/04/11 09:35:29;;;;;;;2.20;0.98;;;9.00;99.90;;;;;;7511527;19;20026;-72
2023/04/11 09:38:03;;;;;;;2.72;1.38;;;9.00;99.90;;;;;;7552587;19;20035;-72
2023/04/11 09:40:43;;;;;;;3.35;0.90;;;8.90;99.90;;;;;;7552663;19;20023;-73
2023/04/11 09:43:17;;;;;;;5.35;1.58;;;8.90;99.90;;;;;;7529889;19;20481;-73
2023/04/11 09:46:10;;;;;;;3.05;1.52;;;8.90;99.90;;;;;;7562263;19;20038;-73
2023/04/11 09:48:43;;;;;;;2.92;1.40;;;8.90;99.90;;;;;;7567666;19;20014;-73
2023/04/11 09:51:34;;;;;;;2.17;1.33;;;9.00;99.90;;;;;;7557996;19;20037;-73
2023/04/11 09:54:10;;;;;;;4.63;1.65;;;8.90;99.90;;;;;;7575657;19;20018;-73
2023/04/11 09:56:43;;;;;;;5.20;1.60;;;8.90;99.90;;;;;;7578805;19;20063;-72
2023/04/11 09:59:15;;;;;;;2.38;1.40;;;9.00;99.90;;;;;;7565617;19;20011;-75
2023/04/11 10:01:50;;;;;;;5.38;1.50;;;9.00;99.90;;;;;;7564748;19;20086;-73
2023/04/11 10:04:22;;;;;;;6.82;1.65;;;8.90;99.90;;;;;;7586607;19;20014;-73
2023/04/11 10:07:12;;;;;;;2.08;1.27;;;8.90;99.90;;;;;;7578766;19;20014;-73
2023/04/11 10:09:46;;;;;;;5.53;1.88;;;8.80;99.90;;;;;;7578941;19;20801;-73
2023/04/11 10:12:32;;;;;;;5.15;1.70;;;8.90;99.90;;;;;;7553592;19;20014;-73
2023/04/11 10:15:07;;;;;;;9.35;1.92;;;8.90;99.90;;;;;;7603113;19;20031;-74
2023/04/11 10:17:40;;;;;;;7.32;1.92;;;8.80;99.90;;;;;;7587066;19;20055;-73
2023/04/11 10:20:34;;;;;;;7.00;2.38;;;8.80;99.90;;;;;;7582019;19;20097;-73
2023/04/11 10:23:06;;;;;;;5.88;1.90;;;8.80;99.90;;;;;;7581508;19;20018;-73
2023/04/11 10:25:52;;;;;;;4.68;1.90;;;8.80;99.90;;;;;;7591463;19;20019;-73
2023/04/11 10:28:30;;;;;;;5.10;1.98;;;8.80;99.90;;;;;;7596944;19;20576;-75
2023/04/11 10:31:15;;;;;;;4.85;1.55;;;8.80;99.90;;;;;;7587339;19;21101;-74
2023/04/11 10:34:15;;;;;;;6.75;1.60;;;8.80;99.90;;;;;;7506405;19;20584;-75
2023/04/11 10:37:07;;;;;;;5.63;1.58;;;8.80;99.90;;;;;;7544276;19;20089;-75
2023/04/11 10:39:59;;;;;;;4.70;1.63;;;8.80;99.90;;;;;;7557830;19;20015;-74
2023/04/11 10:42:33;;;;;;;4.53;1.52;;;8.70;99.90;;;;;;7544569;19;20141;-73
2023/04/11 10:45:23;;;;;;;3.63;1.40;;;8.60;99.90;;;;;;7535532;19;20022;-73
2023/04/11 10:47:55;;;;;;;3.97;1.98;;;8.60;99.90;;;;;;7561220;19;20025;-74
2023/04/11 10:50:32;;;;;;;4.47;2.22;;;8.60;99.90;;;;;;7554530;19;20006;-76
2023/04/11 10:53:05;;;;;;;2.53;1.70;;;8.60;99.90;;;;;;7569680;19;20093;-75
2023/04/11 10:55:49;;;;;;;5.72;1.83;;;8.50;99.90;;;;;;7543885;19;21000;-74
2023/04/11 10:58:32;;;;;;;;;;;8.30;99.90;;;;;;7557899;19;20014;-74
2023/04/11 11:01:13;;;;;;;3.97;1.08;;;8.30;99.90;;;;;;7554166;19;19938;-74
2023/04/11 11:04:03;;;;;;;5.28;1.48;;;8.20;99.90;;;;;;7587696;19;20011;-75
2023/04/11 11:06:37;;;;;;;5.35;1.95;;;8.30;99.90;;;;;;7596627;19;20014;-75
2023/04/11 11:09:22;;;;;;;5.72;1.58;;;8.50;99.90;;;;;;7571607;19;20022;-74
2023/04/11 11:12:15;;;;;;;8.57;1.70;;;8.80;99.90;;;;;;7584302;19;20018;-73
2023/04/11 11:14:48;;;;;;;6.63;1.90;;;9.10;99.90;;;;;;7590005;19;20025;-74
2023/04/11 11:17:22;;;;;;;2.42;1.20;;;9.20;99.90;;;;;;7581196;19;20007;-74
2023/04/11 11:19:54;;;;;;;4.85;1.58;;;9.20;99.90;;;;;;7566411;19;20051;-73
2023/04/11 11:22:27;;;;;;;5.53;1.23;;;9.30;99.90;;;;;;7590457;19;20047;-74
2023/04/11 11:25:09;;;;;;;3.50;1.40;;;9.40;99.90;;;;;;7591382;19;20025;-73
2023/04/11 11:27:41;;;;;;;2.42;1.13;;;9.60;99.90;;;;;;7569942;19;20019;-74
2023/04/11 11:30:14;;;;;;;2.00;1.23;;;10.00;99.90;;;;;;7590996;19;20434;-74
2023/04/11 11:32:47;;;;;;;7.03;1.42;;;10.10;99.90;;;;;;7592721;19;20098;-75
2023/04/11 11:35:21;;;;;;;2.88;1.33;;;10.10;99.90;;;;;;7598785;19;20090;-73
2023/04/11 11:37:53;;;;;;;5.97;1.25;;;10.30;99.90;;;;;;7601282;19;21326;-73
2023/04/11 11:40:26;;;;;;;4.93;1.67;;;10.40;99.90;;;;;;7577882;19;20109;-72
2023/04/11 11:42:58;;;;;;;7.37;1.63;;;10.30;99.90;;;;;;7559491;19;20027;-72
2023/04/11 11:45:32;;;;;;;4.10;1.80;;;10.40;99.90;;;;;;7528067;19;20042;-74
2023/04/11 11:48:04;;;;;;;;;;;10.40;99.90;;;;;;7536807;19;20014;-73
2023/04/11 11:50:36;;;;;;;8.73;2.30;;;10.40;99.90;;;;;;7555365;19;19918;-75
2023/04/11 11:53:14;;;;;;;5.65;1.70;;;10.30;99.90;;;;;;7537140;19;20018;-73
2023/04/11 11:55:46;;;;;;;4.70;1.80;;;10.20;99.90;;;;;;7566724;19;20018;-73
2023/04/11 11:58:19;;;;;;;4.10;1.63;;;10.00;99.90;;;;;;7566954;19;20010;-73
2023/04/11 12:00:52;;;;;;;5.90;1.88;;;9.90;99.90;;;;;;7585615;19;23616;-73
2023/04/11 12:03:28;;;;;;;5.75;1.80;;;9.90;99.90;;;;;;7587964;19;20023;-72
2023/04/11 12:06:01;;;;;;;7.28;1.50;;;9.90;99.90;;;;;;7562997;19;20620;-69
2023/04/11 12:08:33;;;;;;;2.88;1.75;;;10.00;99.90;;;;;;7582169;19;20015;-74
2023/04/11 12:11:11;;;;;;;6.75;1.40;;;10.50;99.90;;;;;;7557015;19;20102;-73
2023/04/11 12:13:46;;;;;;;2.20;1.30;;;10.70;99.90;;;;;;7572800;19;21699;-73
2023/04/11 12:16:21;;;;;;;3.65;1.50;;;10.80;99.90;;;;;;7568511;19;20643;-74
2023/04/11 12:18:57;;;;;;;4.30;1.40;;;10.80;99.90;;;;;;7560558;19;20617;-74
2023/04/11 12:21:30;;;;;;;5.70;1.95;;;11.00;99.90;;;;;;7567751;19;20082;-74
2023/04/11 12:24:03;;;;;;;5.63;1.67;;;11.10;99.90;;;;;;7547663;19;20025;-75
2023/04/11 12:26:35;;;;;;;5.97;1.60;;;11.20;99.90;;;;;;7559704;19;20015;-74
2023/04/11 12:29:20;;;;;;;3.05;1.42;;;11.40;99.90;;;;;;7566682;19;20021;-74
2023/04/11 12:31:52;;;;;;;2.97;1.75;;;11.20;99.90;;;;;;7591899;19;20018;-75
2023/04/11 12:34:24;;;;;;;3.35;1.10;;;11.00;99.90;;;;;;7578039;19;20024;-73
2023/04/11 12:36:59;;;;;;;2.40;1.35;;;10.90;99.90;;;;;;7584114;19;20022;-72
2023/04/11 12:39:32;;;;;;;10.75;2.10;;;10.60;99.90;;;;;;7577908;19;20018;-73
2023/04/11 12:42:04;;;;;;;4.30;1.02;;;10.40;99.90;;;;;;7574087;19;20019;-73
2023/04/11 12:44:37;;;;;;;8.23;2.65;;;10.60;99.90;;;;;;7580075;19;20018;-72
2023/04/11 12:47:09;;;;;;;4.68;2.47;;;10.60;99.90;;;;;;7570905;19;20014;-72
2023/04/11 12:49:42;;;;;;;8.27;2.22;;;11.00;99.90;;;;;;7584338;19;20019;-73
2023/04/11 12:52:14;;;;;;;7.35;2.25;;;11.00;99.90;;;;;;7554581;19;20036;-71
2023/04/11 12:54:46;;;;;;;3.75;1.88;;;10.90;99.90;;;;;;7605067;19;20025;-71
2023/04/11 12:57:18;;;;;;;3.88;1.20;;;10.90;99.90;;;;;;7577384;19;20589;-72
2023/04/11 12:59:51;;;;;;;4.47;2.00;;;10.90;99.90;;;;;;7583225;19;20018;-71
2023/04/11 13:02:24;;;;;;;4.45;2.17;;;10.70;99.90;;;;;;7568792;19;20577;-71
2023/04/11 13:04:56;;;;;;;6.90;2.00;;;10.60;99.90;;;;;;7578603;19;20113;-71
2023/04/11 13:07:29;;;;;;;7.65;2.17;;;10.50;99.90;;;;;;7558613;19;20429;-71
2023/04/11 13:10:02;;;;;;;4.55;2.28;;;10.30;99.90;;;;;;7557620;19;20038;-72
2023/04/11 13:12:39;;;;;;;;;;;10.30;99.90;;;;;;7570665;19;20029;-72
2023/04/11 13:15:14;;;;;;;3.10;1.40;;;10.50;99.90;;;;;;7566013;19;19948;-73
2023/04/11 13:17:46;;;;;;;5.95;1.90;;;10.40;99.90;;;;;;7560144;19;20014;-73
2023/04/11 13:20:19;;;;;;;7.28;2.05;;;10.40;99.90;;;;;;7524210;19;20022;-71
2023/04/11 13:22:52;;;;;;;7.90;2.10;;;10.50;99.90;;;;;;7570519;19;20037;-72
2023/04/11 13:25:26;;;;;;;;;;;10.50;99.90;;;;;;7567849;19;20019;-70
2023/04/11 13:27:58;;;;;;;3.92;1.45;;;10.60;99.90;;;;;;7508098;19;20374;-72
2023/04/11 13:30:30;;;;;;;6.50;1.88;;;10.60;99.90;;;;;;7540853;19;20014;-74
2023/04/11 13:33:03;;;;;;;3.72;1.67;;;10.50;99.90;;;;;;7536853;19;20202;-73